createdAt,value
2023-04-08T00:00:23.683Z,2.41
2023-04-08T00:01:23.689Z,2.45
2023-04-08T00:02:23.668Z,2.38
2023-04-08T00:03:23.780Z,2.39
2023-04-08T00:04:23.686Z,2.43
2023-04-08T00:05:23.637Z,2.48
2023-04-08T00:06:23.586Z,2.39
2023-04-08T00:07:23.594Z,2.43
2023-04-08T00:08:23.576Z,2.39
2023-04-08T00:09:23.570Z,2.39
2023-04-08T00:10:23.554Z,2.42
2023-04-08T00:11:23.558Z,2.45
2023-04-08T00:12:23.532Z,2.42
2023-04-08T00:13:23.506Z,2.48
2023-04-08T00:14:23.503Z,2.45
2023-04-08T00:15:23.486Z,2.45
2023-04-08T00:16:23.539Z,2.48
2023-04-08T00:17:23.518Z,2.39
2023-04-08T00:18:23.466Z,2.42
2023-04-08T00:19:23.447Z,2.49
2023-04-08T00:20:23.432Z,2.45
2023-04-08T00:21:23.461Z,2.45
2023-04-08T00:22:23.438Z,2.45
2023-04-08T00:23:23.441Z,2.43
2023-04-08T00:24:23.383Z,2.39
2023-04-08T00:25:25.426Z,2.46
2023-04-08T00:26:23.380Z,2.42
2023-04-08T00:27:23.387Z,2.27
2023-04-08T00:28:23.359Z,2.38
2023-04-08T00:29:23.333Z,2.34
2023-04-08T00:30:23.343Z,2.30
2023-04-08T00:31:23.416Z,2.30
2023-04-08T00:32:23.319Z,2.35
2023-04-08T00:33:23.402Z,2.38
2023-04-08T00:34:23.306Z,2.27
2023-04-08T00:35:23.333Z,2.31
2023-04-08T00:36:23.262Z,2.27
2023-04-08T00:37:23.265Z,2.34
2023-04-08T00:38:23.255Z,2.27
2023-04-08T00:39:23.241Z,2.21
2023-04-08T00:40:23.261Z,2.25
2023-04-08T00:41:23.216Z,2.25
2023-04-08T00:42:23.184Z,2.30
2023-04-08T00:43:23.200Z,2.27
2023-04-08T00:44:23.172Z,2.14
2023-04-08T00:45:23.203Z,2.17
2023-04-08T00:46:23.219Z,2.14
2023-04-08T00:47:23.181Z,2.21
2023-04-08T00:48:23.154Z,2.16
2023-04-08T00:49:23.148Z,2.20
2023-04-08T00:50:23.108Z,2.10
2023-04-08T00:51:23.110Z,2.12
2023-04-08T00:52:23.102Z,2.14
2023-04-08T00:53:24.284Z,2.12
2023-04-08T00:54:23.060Z,2.12
2023-04-08T00:55:23.050Z,2.12
2023-04-08T00:56:23.058Z,2.06
2023-04-08T00:57:23.053Z,2.06
2023-04-08T00:58:23.043Z,2.09
2023-04-08T00:59:23.017Z,2.00
2023-04-08T01:00:23.006Z,2.10
2023-04-08T01:01:23.055Z,1.93
2023-04-08T01:02:23.257Z,2.05
2023-04-08T01:03:23.150Z,2.02
2023-04-08T01:04:23.127Z,2.03
2023-04-08T01:05:22.935Z,1.93
2023-04-08T01:06:22.950Z,2.05
2023-04-08T01:07:22.930Z,2.09
2023-04-08T01:08:22.922Z,1.90
2023-04-08T01:09:22.935Z,2.07
2023-04-08T01:10:22.885Z,2.03
2023-04-08T01:11:22.882Z,2.06
2023-04-08T01:12:22.854Z,2.12
2023-04-08T01:13:22.881Z,2.07
2023-04-08T01:14:22.833Z,2.14
2023-04-08T01:15:22.873Z,2.14
2023-04-08T01:16:22.925Z,2.17
2023-04-08T01:17:22.838Z,2.16
2023-04-08T01:18:22.793Z,2.16
2023-04-08T01:19:22.791Z,2.10
2023-04-08T01:20:22.804Z,2.16
2023-04-08T01:21:22.768Z,2.18
2023-04-08T01:22:22.746Z,2.30
2023-04-08T01:23:22.753Z,2.27
2023-04-08T01:24:22.738Z,2.23
2023-04-08T01:25:22.744Z,2.28
2023-04-08T01:26:22.750Z,2.24
2023-04-08T01:27:22.697Z,2.38
2023-04-08T01:28:22.712Z,2.39
2023-04-08T01:29:22.691Z,2.42
2023-04-08T01:30:22.680Z,2.45
2023-04-08T01:31:22.756Z,2.48
2023-04-08T01:32:22.665Z,2.42
2023-04-08T01:33:22.627Z,2.46
2023-04-08T01:34:22.636Z,2.48
2023-04-08T01:35:22.615Z,2.57
2023-04-08T01:36:22.620Z,2.59
2023-04-08T01:37:22.613Z,2.56
2023-04-08T01:38:22.582Z,2.59
2023-04-08T01:39:22.583Z,2.59
2023-04-08T01:40:23.225Z,2.57
2023-04-08T01:41:22.549Z,2.59
2023-04-08T01:42:22.547Z,2.54
2023-04-08T01:43:22.553Z,2.54
2023-04-08T01:44:22.512Z,2.56
2023-04-08T01:45:22.517Z,2.59
2023-04-08T01:46:22.505Z,2.61
2023-04-08T01:47:22.548Z,2.63
2023-04-08T01:48:22.495Z,2.67
2023-04-08T01:49:22.460Z,2.71
2023-04-08T01:50:22.448Z,2.71
2023-04-08T01:51:22.759Z,2.71
2023-04-08T01:52:22.436Z,2.79
2023-04-08T01:53:22.418Z,2.77
2023-04-08T01:54:22.392Z,2.78
2023-04-08T01:55:22.396Z,2.89
2023-04-08T01:56:22.373Z,2.85
2023-04-08T01:57:22.407Z,2.89
2023-04-08T01:58:22.363Z,2.95
2023-04-08T01:59:22.357Z,2.89
2023-04-08T02:00:22.330Z,2.92
2023-04-08T02:01:22.498Z,2.95
2023-04-08T02:02:22.482Z,2.95
2023-04-08T02:03:22.513Z,2.99
2023-04-08T02:04:22.381Z,3.08
2023-04-08T02:05:22.271Z,3.00
2023-04-08T02:06:22.263Z,3.11
2023-04-08T02:07:22.249Z,3.11
2023-04-08T02:08:22.246Z,3.13
2023-04-08T02:09:22.233Z,3.18
2023-04-08T02:10:22.244Z,3.11
2023-04-08T02:11:22.209Z,3.17
2023-04-08T02:12:22.199Z,3.23
2023-04-08T02:13:22.181Z,3.20
2023-04-08T02:14:22.173Z,3.18
2023-04-08T02:15:22.184Z,3.18
2023-04-08T02:16:22.203Z,3.28
2023-04-08T02:17:22.174Z,3.24
2023-04-08T02:18:22.166Z,3.29
2023-04-08T02:19:22.132Z,3.39
2023-04-08T02:20:22.137Z,3.31
2023-04-08T02:21:22.116Z,3.39
2023-04-08T02:22:22.101Z,3.39
2023-04-08T02:23:22.116Z,3.29
2023-04-08T02:24:22.064Z,3.47
2023-04-08T02:25:22.064Z,3.45
2023-04-08T02:26:22.042Z,3.47
2023-04-08T02:27:22.046Z,3.48
2023-04-08T02:28:22.051Z,3.43
2023-04-08T02:29:22.022Z,3.50
2023-04-08T02:30:21.997Z,3.47
2023-04-08T02:31:22.033Z,3.48
2023-04-08T02:32:21.980Z,3.50
2023-04-08T02:33:22.018Z,3.51
2023-04-08T02:34:21.984Z,3.50
2023-04-08T02:35:21.971Z,3.47
2023-04-08T02:36:21.940Z,3.48
2023-04-08T02:37:21.935Z,3.48
2023-04-08T02:38:21.925Z,3.52
2023-04-08T02:39:21.891Z,3.55
2023-04-08T02:40:21.884Z,3.55
2023-04-08T02:41:21.881Z,3.57
2023-04-08T02:42:21.874Z,3.54
2023-04-08T02:43:21.862Z,3.54
2023-04-08T02:44:21.857Z,3.54
2023-04-08T02:45:21.825Z,3.57
2023-04-08T02:46:21.888Z,3.54
2023-04-08T02:47:21.838Z,3.57
2023-04-08T02:48:21.792Z,3.58
2023-04-08T02:49:21.846Z,3.60
2023-04-08T02:50:21.791Z,3.55
2023-04-08T02:51:21.779Z,3.51
2023-04-08T02:52:21.747Z,3.54
2023-04-08T02:53:21.755Z,3.68
2023-04-08T02:54:21.722Z,3.66
2023-04-08T02:55:21.769Z,3.61
2023-04-08T02:56:21.729Z,3.73
2023-04-08T02:57:21.690Z,3.68
2023-04-08T02:58:21.679Z,3.68
2023-04-08T02:59:21.690Z,3.69
2023-04-08T03:00:21.688Z,3.66
2023-04-08T03:01:21.688Z,3.70
2023-04-08T03:02:21.739Z,3.72
2023-04-08T03:03:21.667Z,3.73
2023-04-08T03:04:21.623Z,3.78
2023-04-08T03:05:21.661Z,3.78
2023-04-08T03:06:21.610Z,3.83
2023-04-08T03:07:21.595Z,3.78
2023-04-08T03:08:21.580Z,3.78
2023-04-08T03:09:30.695Z,3.80
2023-04-08T03:10:21.554Z,3.70
2023-04-08T03:11:21.558Z,3.72
2023-04-08T03:12:21.536Z,3.75
2023-04-08T03:13:21.516Z,3.68
2023-04-08T03:14:21.501Z,3.68
2023-04-08T03:15:21.509Z,3.76
2023-04-08T03:16:21.533Z,3.73
2023-04-08T03:17:21.482Z,3.83
2023-04-08T03:18:21.476Z,3.78
2023-04-08T03:19:21.447Z,3.83
2023-04-08T03:20:21.444Z,3.76
2023-04-08T03:21:21.444Z,3.79
2023-04-08T03:22:21.439Z,3.80
2023-04-08T03:23:21.409Z,3.84
2023-04-08T03:24:21.414Z,3.80
2023-04-08T03:25:21.379Z,3.80
2023-04-08T03:26:21.376Z,3.84
2023-04-08T03:27:21.365Z,3.88
2023-04-08T03:28:21.381Z,3.86
2023-04-08T03:29:21.340Z,3.84
2023-04-08T03:30:21.327Z,3.86
2023-04-08T03:31:21.399Z,3.84
2023-04-08T03:32:21.345Z,3.80
2023-04-08T03:33:21.304Z,3.86
2023-04-08T03:34:21.288Z,3.83
2023-04-08T03:35:21.299Z,3.84
2023-04-08T03:36:21.259Z,3.80
2023-04-08T03:37:21.257Z,3.90
2023-04-08T03:38:21.241Z,3.79
2023-04-08T03:39:21.247Z,3.80
2023-04-08T03:40:21.287Z,3.79
2023-04-08T03:41:21.206Z,3.79
2023-04-08T03:42:21.184Z,3.87
2023-04-08T03:43:21.189Z,3.80
2023-04-08T03:44:21.278Z,3.78
2023-04-08T03:45:21.202Z,3.83
2023-04-08T03:46:21.213Z,3.79
2023-04-08T03:47:21.129Z,3.78
2023-04-08T03:48:21.119Z,3.72
2023-04-08T03:49:21.106Z,3.83
2023-04-08T03:50:21.134Z,3.84
2023-04-08T03:51:21.094Z,3.87
2023-04-08T03:52:21.096Z,3.79
2023-04-08T03:53:21.079Z,3.80
2023-04-08T03:54:21.053Z,3.87
2023-04-08T03:55:21.188Z,3.84
2023-04-08T03:56:21.033Z,3.87
2023-04-08T03:57:21.028Z,3.87
2023-04-08T03:58:21.059Z,3.88
2023-04-08T03:59:21.006Z,3.86
2023-04-08T04:00:20.997Z,3.87
2023-04-08T04:01:20.979Z,3.93
2023-04-08T04:02:21.091Z,3.90
2023-04-08T04:03:21.170Z,4.00
2023-04-08T04:04:21.281Z,3.93
2023-04-08T04:05:20.925Z,3.87
2023-04-08T04:06:20.916Z,3.97
2023-04-08T04:07:20.916Z,3.91
2023-04-08T04:08:20.898Z,3.98
2023-04-08T04:09:20.944Z,3.96
2023-04-08T04:10:20.869Z,4.00
2023-04-08T04:11:20.855Z,3.96
2023-04-08T04:12:20.846Z,3.97
2023-04-08T04:13:20.830Z,3.97
2023-04-08T04:14:20.839Z,4.00
2023-04-08T04:15:20.859Z,4.00
2023-04-08T04:16:20.835Z,3.94
2023-04-08T04:17:20.795Z,3.98
2023-04-08T04:18:20.855Z,3.98
2023-04-08T04:19:20.772Z,3.96
2023-04-08T04:20:20.764Z,3.93
2023-04-08T04:21:20.798Z,3.88
2023-04-08T04:22:20.790Z,4.02
2023-04-08T04:23:20.718Z,3.97
2023-04-08T04:24:20.726Z,4.00
2023-04-08T04:25:20.729Z,3.97
2023-04-08T04:26:20.705Z,3.94
2023-04-08T04:27:20.681Z,4.00
2023-04-08T04:28:20.737Z,3.98
2023-04-08T04:29:20.659Z,4.02
2023-04-08T04:30:20.677Z,4.05
2023-04-08T04:31:20.672Z,3.97
2023-04-08T04:32:20.645Z,4.05
2023-04-08T04:33:20.610Z,4.06
2023-04-08T04:34:20.628Z,4.00
2023-04-08T04:35:20.623Z,4.11
2023-04-08T04:36:20.603Z,4.00
2023-04-08T04:37:20.583Z,4.09
2023-04-08T04:38:20.552Z,4.02
2023-04-08T04:39:20.542Z,4.11
2023-04-08T04:40:20.603Z,4.08
2023-04-08T04:41:20.537Z,4.11
2023-04-08T04:42:20.515Z,4.04
2023-04-08T04:43:20.530Z,4.08
2023-04-08T04:44:20.483Z,4.06
2023-04-08T04:45:20.490Z,4.02
2023-04-08T04:46:20.608Z,4.06
2023-04-08T04:47:20.453Z,4.05
2023-04-08T04:48:20.460Z,4.12
2023-04-08T04:49:20.424Z,4.08
2023-04-08T04:50:20.416Z,4.08
2023-04-08T04:51:20.438Z,4.09
2023-04-08T04:52:20.438Z,4.15
2023-04-08T04:53:20.386Z,4.15
2023-04-08T04:54:20.383Z,4.09
2023-04-08T04:55:20.358Z,4.16
2023-04-08T04:56:20.348Z,4.23
2023-04-08T04:57:20.395Z,4.27
2023-04-08T04:58:20.347Z,4.29
2023-04-08T04:59:20.368Z,4.29
2023-04-08T05:00:20.324Z,4.26
2023-04-08T05:01:20.330Z,4.32
2023-04-08T05:02:20.386Z,4.33
2023-04-08T05:03:20.330Z,4.32
2023-04-08T05:04:20.262Z,4.33
2023-04-08T05:05:20.348Z,4.27
2023-04-08T05:06:20.242Z,4.37
2023-04-08T05:07:20.235Z,4.36
2023-04-08T05:08:20.222Z,4.33
2023-04-08T05:09:20.229Z,4.44
2023-04-08T05:10:20.206Z,4.42
2023-04-08T05:11:20.247Z,4.41
2023-04-08T05:12:20.178Z,4.44
2023-04-08T05:13:20.202Z,4.37
2023-04-08T05:14:20.164Z,4.41
2023-04-08T05:15:20.164Z,4.47
2023-04-08T05:16:20.194Z,4.42
2023-04-08T05:17:20.158Z,4.48
2023-04-08T05:18:20.114Z,4.50
2023-04-08T05:19:20.102Z,4.51
2023-04-08T05:20:20.097Z,4.44
2023-04-08T05:21:20.099Z,4.40
2023-04-08T05:22:20.096Z,4.50
2023-04-08T05:23:20.109Z,4.47
2023-04-08T05:24:20.046Z,4.54
2023-04-08T05:25:20.037Z,4.65
2023-04-08T05:26:20.428Z,4.59
2023-04-08T05:27:20.061Z,4.55
2023-04-08T05:28:20.016Z,4.58
2023-04-08T05:29:20.062Z,4.59
2023-04-08T05:30:20.012Z,4.66
2023-04-08T05:31:20.010Z,4.69
2023-04-08T05:32:19.958Z,4.66
2023-04-08T05:33:19.958Z,4.65
2023-04-08T05:34:19.957Z,4.70
2023-04-08T05:35:20.012Z,4.70
2023-04-08T05:36:19.932Z,4.77
2023-04-08T05:37:19.908Z,4.78
2023-04-08T05:38:19.891Z,4.78
2023-04-08T05:39:19.889Z,4.75
2023-04-08T05:40:19.870Z,4.75
2023-04-08T05:41:19.905Z,4.78
2023-04-08T05:42:19.882Z,4.96
2023-04-08T05:43:19.859Z,4.88
2023-04-08T05:44:19.834Z,4.91
2023-04-08T05:45:19.845Z,4.84
2023-04-08T05:46:19.837Z,4.92
2023-04-08T05:47:19.976Z,4.96
2023-04-08T05:48:19.790Z,5.09
2023-04-08T05:49:19.765Z,4.96
2023-04-08T05:50:19.768Z,5.00
2023-04-08T05:51:19.766Z,5.03
2023-04-08T05:52:19.745Z,5.03
2023-04-08T05:53:19.781Z,5.07
2023-04-08T05:54:19.744Z,5.07
2023-04-08T05:55:19.710Z,5.10
2023-04-08T05:56:19.709Z,5.06
2023-04-08T05:57:19.711Z,5.17
2023-04-08T05:58:19.668Z,5.21
2023-04-08T05:59:19.683Z,5.13
2023-04-08T06:00:19.651Z,5.07
2023-04-08T06:01:19.682Z,5.04
2023-04-08T06:02:19.791Z,5.10
2023-04-08T06:03:20.713Z,5.10
2023-04-08T06:04:19.664Z,5.09
2023-04-08T06:05:19.612Z,5.06
2023-04-08T06:06:19.568Z,5.15
2023-04-08T06:07:19.570Z,5.13
2023-04-08T06:08:19.589Z,5.15
2023-04-08T06:09:19.536Z,5.17
2023-04-08T06:10:19.829Z,5.24
2023-04-08T06:11:19.564Z,5.27
2023-04-08T06:12:19.506Z,5.31
2023-04-08T06:13:19.504Z,5.24
2023-04-08T06:14:19.507Z,5.30
2023-04-08T06:15:19.464Z,5.25
2023-04-08T06:16:21.096Z,5.27
2023-04-08T06:17:19.516Z,5.42
2023-04-08T06:18:19.441Z,5.33
2023-04-08T06:19:19.545Z,5.33
2023-04-08T06:20:19.449Z,5.42
2023-04-08T06:21:19.399Z,5.36
2023-04-08T06:22:19.406Z,5.39
2023-04-08T06:23:19.415Z,5.38
2023-04-08T06:24:19.364Z,5.48
2023-04-08T06:25:19.350Z,5.48
2023-04-08T06:26:19.358Z,5.49
2023-04-08T06:27:19.331Z,5.42
2023-04-08T06:28:19.326Z,5.48
2023-04-08T06:29:19.347Z,5.57
2023-04-08T06:30:19.318Z,5.58
2023-04-08T06:31:19.360Z,5.65
2023-04-08T06:32:19.333Z,5.61
2023-04-08T06:33:19.301Z,5.60
2023-04-08T06:34:19.247Z,5.65
2023-04-08T06:35:19.313Z,5.71
2023-04-08T06:36:19.254Z,5.75
2023-04-08T06:37:19.220Z,5.72
2023-04-08T06:38:19.205Z,5.76
2023-04-08T06:39:19.193Z,5.68
2023-04-08T06:40:19.207Z,5.79
2023-04-08T06:41:19.220Z,5.82
2023-04-08T06:42:19.919Z,5.72
2023-04-08T06:43:19.146Z,5.81
2023-04-08T06:44:19.135Z,5.86
2023-04-08T06:45:19.147Z,5.83
2023-04-08T06:46:19.153Z,5.78
2023-04-08T06:47:19.180Z,5.85
2023-04-08T06:48:19.090Z,5.81
2023-04-08T06:49:19.100Z,5.85
2023-04-08T06:50:19.093Z,5.86
2023-04-08T06:51:19.086Z,5.89
2023-04-08T06:52:19.058Z,5.85
2023-04-08T06:53:19.080Z,5.96
2023-04-08T06:54:19.041Z,5.94
2023-04-08T06:55:19.013Z,5.97
2023-04-08T06:56:19.001Z,6.01
2023-04-08T06:57:18.991Z,6.08
2023-04-08T06:58:18.994Z,6.14
2023-04-08T06:59:19.209Z,6.06
2023-04-08T07:00:18.955Z,6.12
2023-04-08T07:01:18.979Z,6.17
2023-04-08T07:02:19.049Z,6.18
2023-04-08T07:03:19.051Z,6.18
2023-04-08T07:04:19.048Z,6.27
2023-04-08T07:05:18.956Z,6.28
2023-04-08T07:06:18.892Z,6.31
2023-04-08T07:07:18.880Z,6.33
2023-04-08T07:08:18.896Z,6.17
2023-04-08T07:09:18.869Z,6.22
2023-04-08T07:10:18.863Z,6.28
2023-04-08T07:11:18.894Z,6.30
2023-04-08T07:12:18.838Z,6.33
2023-04-08T07:13:18.821Z,6.31
2023-04-08T07:14:18.825Z,6.38
2023-04-08T07:15:18.797Z,6.44
2023-04-08T07:16:18.823Z,6.36
2023-04-08T07:17:18.795Z,6.31
2023-04-08T07:18:18.777Z,6.21
2023-04-08T07:19:18.763Z,6.28
2023-04-08T07:20:18.748Z,6.21
2023-04-08T07:21:18.764Z,6.27
2023-04-08T07:22:18.756Z,6.22
2023-04-08T07:23:18.717Z,6.31
2023-04-08T07:24:18.702Z,6.30
2023-04-08T07:25:18.680Z,6.30
2023-04-08T07:26:18.684Z,6.31
2023-04-08T07:27:18.691Z,6.37
2023-04-08T07:28:18.701Z,6.31
2023-04-08T07:29:18.667Z,6.31
2023-04-08T07:30:18.636Z,6.31
2023-04-08T07:31:18.691Z,6.34
2023-04-08T07:32:18.690Z,6.37
2023-04-08T07:33:18.609Z,6.33
2023-04-08T07:34:18.645Z,6.31
2023-04-08T07:35:18.631Z,6.38
2023-04-08T07:36:18.586Z,6.30
2023-04-08T07:37:18.597Z,6.41
2023-04-08T07:38:18.551Z,6.31
2023-04-08T07:39:18.538Z,6.41
2023-04-08T07:40:18.509Z,6.36
2023-04-08T07:41:18.546Z,6.38
2023-04-08T07:42:18.533Z,6.27
2023-04-08T07:43:18.509Z,6.28
2023-04-08T07:44:18.500Z,6.30
2023-04-08T07:45:18.458Z,6.28
2023-04-08T07:46:18.517Z,6.38
2023-04-08T07:47:18.487Z,6.37
2023-04-08T07:48:18.448Z,6.40
2023-04-08T07:49:18.446Z,6.40
2023-04-08T07:50:18.410Z,6.38
2023-04-08T07:51:20.435Z,6.36
2023-04-08T07:52:18.396Z,6.41
2023-04-08T07:53:18.419Z,6.43
2023-04-08T07:54:18.367Z,6.33
2023-04-08T07:55:18.381Z,6.44
2023-04-08T07:56:18.379Z,6.43
2023-04-08T07:57:18.325Z,6.55
2023-04-08T07:58:18.336Z,6.49
2023-04-08T07:59:18.370Z,6.52
2023-04-08T08:00:18.302Z,6.40
2023-04-08T08:01:18.292Z,6.38
2023-04-08T08:02:18.403Z,6.37
2023-04-08T08:03:18.399Z,6.38
2023-04-08T08:04:18.670Z,6.41
2023-04-08T08:05:18.299Z,6.49
2023-04-08T08:06:18.224Z,6.54
2023-04-08T08:07:18.239Z,6.48
2023-04-08T08:08:18.217Z,6.67
2023-04-08T08:09:18.205Z,6.62
2023-04-08T08:10:18.186Z,6.66
2023-04-08T08:11:18.171Z,6.77
2023-04-08T08:12:18.194Z,6.67
2023-04-08T08:13:18.145Z,6.66
2023-04-08T08:14:18.132Z,6.70
2023-04-08T08:15:18.128Z,6.71
2023-04-08T08:16:18.173Z,6.85
2023-04-08T08:17:18.113Z,6.79
2023-04-08T08:18:18.145Z,6.77
2023-04-08T08:19:18.098Z,6.79
2023-04-08T08:20:18.066Z,6.91
2023-04-08T08:21:18.099Z,6.91
2023-04-08T08:22:18.043Z,6.94
2023-04-08T08:23:18.065Z,6.85
2023-04-08T08:24:18.066Z,6.91
2023-04-08T08:25:18.840Z,6.80
2023-04-08T08:26:18.046Z,6.71
2023-04-08T08:27:18.001Z,6.55
2023-04-08T08:28:17.999Z,6.40
2023-04-08T08:29:17.982Z,6.34
2023-04-08T08:30:17.997Z,6.18
2023-04-08T08:31:17.985Z,6.06
2023-04-08T08:32:17.972Z,5.93
2023-04-08T08:33:17.927Z,5.89
2023-04-08T08:34:17.924Z,5.96
2023-04-08T08:35:17.916Z,5.89
2023-04-08T08:36:18.045Z,5.91
2023-04-08T08:37:17.899Z,5.82
2023-04-08T08:38:17.895Z,5.89
2023-04-08T08:39:17.890Z,5.83
2023-04-08T08:40:17.889Z,5.81
2023-04-08T08:41:17.855Z,5.86
2023-04-08T08:42:17.876Z,5.96
2023-04-08T08:43:17.816Z,5.96
2023-04-08T08:44:17.819Z,5.97
2023-04-08T08:45:17.798Z,6.03
2023-04-08T08:46:17.821Z,6.12
2023-04-08T08:47:17.793Z,6.17
2023-04-08T08:48:17.820Z,6.11
2023-04-08T08:49:17.766Z,6.17
2023-04-08T08:50:17.770Z,6.18
2023-04-08T08:51:17.739Z,6.28
2023-04-08T08:52:17.732Z,6.27
2023-04-08T08:53:17.735Z,6.28
2023-04-08T08:54:17.714Z,6.30
2023-04-08T08:55:36.365Z,6.31
2023-04-08T08:56:19.238Z,6.30
2023-04-08T08:57:17.688Z,6.30
2023-04-08T08:58:17.645Z,6.31
2023-04-08T08:59:17.655Z,6.34
2023-04-08T09:00:17.653Z,6.33
2023-04-08T09:01:17.691Z,6.36
2023-04-08T09:02:17.748Z,6.34
2023-04-08T09:03:17.839Z,6.41
2023-04-08T09:04:17.808Z,6.33
2023-04-08T09:05:17.818Z,6.33
2023-04-08T09:06:17.595Z,6.30
2023-04-08T09:07:17.572Z,6.19
2023-04-08T09:08:17.553Z,6.18
2023-04-08T09:09:17.561Z,6.03
2023-04-08T09:10:17.514Z,5.93
2023-04-08T09:11:17.532Z,5.97
2023-04-08T09:12:18.240Z,5.90
2023-04-08T09:13:17.502Z,5.90
2023-04-08T09:14:17.484Z,5.93
2023-04-08T09:15:17.497Z,5.99
2023-04-08T09:16:17.474Z,5.91
2023-04-08T09:17:17.434Z,5.97
2023-04-08T09:18:17.878Z,6.14
2023-04-08T09:19:17.420Z,6.09
2023-04-08T09:20:17.422Z,5.91
2023-04-08T09:21:17.390Z,5.90
2023-04-08T09:22:17.396Z,5.76
2023-04-08T09:23:17.371Z,5.85
2023-04-08T09:24:17.872Z,5.76
2023-04-08T09:25:17.358Z,5.81
2023-04-08T09:26:17.346Z,5.76
2023-04-08T09:27:17.325Z,5.74
2023-04-08T09:28:17.323Z,5.63
2023-04-08T09:29:25.964Z,5.56
2023-04-08T09:30:18.332Z,5.56
2023-04-08T09:31:17.300Z,5.49
2023-04-08T09:32:17.293Z,5.60
2023-04-08T09:33:17.259Z,5.57
2023-04-08T09:34:17.273Z,5.54
2023-04-08T09:35:17.253Z,5.53
2023-04-08T09:36:17.272Z,5.51
2023-04-08T09:37:17.229Z,5.56
2023-04-08T09:38:17.215Z,5.57
2023-04-08T09:39:17.204Z,5.68
2023-04-08T09:40:17.198Z,5.53
2023-04-08T09:41:17.204Z,5.58
2023-04-08T09:42:17.234Z,5.61
2023-04-08T09:43:17.180Z,5.54
2023-04-08T09:44:17.211Z,5.58
2023-04-08T09:45:17.165Z,5.53
2023-04-08T09:46:17.205Z,5.46
2023-04-08T09:47:17.106Z,5.42
2023-04-08T09:48:17.162Z,5.28
2023-04-08T09:49:17.115Z,5.31
2023-04-08T09:50:17.066Z,5.30
2023-04-08T09:51:17.060Z,5.40
2023-04-08T09:52:17.068Z,5.33
2023-04-08T09:53:17.041Z,5.36
2023-04-08T09:54:17.065Z,5.28
2023-04-08T09:55:17.013Z,5.28
2023-04-08T09:56:17.015Z,5.35
2023-04-08T09:57:17.012Z,5.31
2023-04-08T09:58:17.023Z,5.36
2023-04-08T09:59:16.984Z,5.28
2023-04-08T10:00:17.047Z,5.25
2023-04-08T10:01:17.004Z,5.20
2023-04-08T10:02:17.018Z,5.21
2023-04-08T10:03:17.195Z,5.20
2023-04-08T10:04:17.081Z,5.17
2023-04-08T10:05:16.936Z,5.24
2023-04-08T10:06:16.964Z,5.27
2023-04-08T10:07:16.881Z,5.28
2023-04-08T10:08:16.867Z,5.33
2023-04-08T10:09:16.862Z,5.42
2023-04-08T10:10:16.867Z,5.38
2023-04-08T10:11:16.852Z,5.53
2023-04-08T10:12:16.864Z,5.57
2023-04-08T10:13:16.828Z,5.63
2023-04-08T10:14:16.802Z,5.53
2023-04-08T10:15:16.808Z,5.65
2023-04-08T10:16:16.836Z,5.65
2023-04-08T10:17:16.936Z,5.75
2023-04-08T10:18:16.761Z,5.82
2023-04-08T10:19:16.813Z,5.75
2023-04-08T10:20:16.739Z,5.83
2023-04-08T10:21:16.755Z,5.85
2023-04-08T10:22:16.751Z,5.86
2023-04-08T10:23:16.720Z,5.78
2023-04-08T10:24:16.694Z,5.75
2023-04-08T10:25:16.777Z,5.65
2023-04-08T10:26:16.685Z,5.57
2023-04-08T10:27:16.684Z,5.61
2023-04-08T10:28:16.665Z,5.53
2023-04-08T10:29:16.633Z,5.53
2023-04-08T10:30:16.659Z,5.49
2023-04-08T10:31:16.676Z,5.46
2023-04-08T10:32:16.616Z,5.35
2023-04-08T10:33:16.674Z,5.31
2023-04-08T10:34:16.595Z,5.39
2023-04-08T10:35:16.585Z,5.38
2023-04-08T10:36:16.556Z,5.36
2023-04-08T10:37:16.553Z,5.53
2023-04-08T10:38:16.534Z,5.39
2023-04-08T10:39:16.577Z,5.51
2023-04-08T10:40:16.939Z,5.40
2023-04-08T10:41:16.555Z,5.43
2023-04-08T10:42:16.485Z,5.46
2023-04-08T10:43:16.501Z,5.46
2023-04-08T10:44:16.467Z,5.57
2023-04-08T10:45:16.501Z,5.61
2023-04-08T10:46:16.519Z,5.60
2023-04-08T10:47:16.461Z,5.57
2023-04-08T10:48:16.437Z,5.64
2023-04-08T10:49:16.447Z,5.60
2023-04-08T10:50:16.481Z,5.53
2023-04-08T10:51:16.415Z,5.56
2023-04-08T10:52:16.375Z,5.51
2023-04-08T10:53:16.365Z,5.42
2023-04-08T10:54:16.359Z,5.39
2023-04-08T10:55:16.371Z,5.42
2023-04-08T10:56:16.396Z,5.36
2023-04-08T10:57:16.364Z,5.48
2023-04-08T10:58:16.322Z,5.45
2023-04-08T10:59:16.297Z,5.40
2023-04-08T11:00:16.298Z,5.39
2023-04-08T11:01:16.312Z,5.39
2023-04-08T11:02:16.670Z,5.38
2023-04-08T11:03:16.422Z,5.35
2023-04-08T11:04:16.313Z,5.22
2023-04-08T11:05:16.260Z,5.30
2023-04-08T11:06:16.234Z,5.31
2023-04-08T11:07:16.218Z,5.31
2023-04-08T11:08:16.208Z,5.36
2023-04-08T11:09:16.274Z,5.38
2023-04-08T11:10:16.181Z,5.36
2023-04-08T11:11:16.203Z,5.36
2023-04-08T11:12:16.154Z,5.39
2023-04-08T11:13:16.157Z,5.42
2023-04-08T11:14:16.153Z,5.39
2023-04-08T11:15:16.160Z,5.45
2023-04-08T11:16:18.308Z,5.49
2023-04-08T11:17:16.108Z,5.48
2023-04-08T11:18:16.089Z,5.58
2023-04-08T11:19:16.108Z,5.61
2023-04-08T11:20:16.073Z,5.58
2023-04-08T11:21:16.155Z,5.48
2023-04-08T11:22:16.041Z,5.48
2023-04-08T11:23:16.051Z,5.45
2023-04-08T11:24:16.028Z,5.36
2023-04-08T11:25:16.035Z,5.38
2023-04-08T11:26:15.996Z,5.51
2023-04-08T11:27:16.050Z,5.43
2023-04-08T11:28:15.981Z,5.53
2023-04-08T11:29:15.959Z,5.43
2023-04-08T11:30:15.970Z,5.43
2023-04-08T11:31:15.958Z,5.39
2023-04-08T11:32:15.933Z,5.39
2023-04-08T11:33:15.946Z,5.38
2023-04-08T11:34:15.940Z,5.53
2023-04-08T11:35:15.920Z,5.42
2023-04-08T11:36:15.945Z,5.36
2023-04-08T11:37:15.899Z,5.35
2023-04-08T11:38:15.861Z,5.22
2023-04-08T11:39:15.927Z,5.25
2023-04-08T11:40:15.841Z,5.24
2023-04-08T11:41:15.848Z,5.27
2023-04-08T11:42:15.833Z,5.28
2023-04-08T11:43:15.809Z,5.31
2023-04-08T11:44:15.806Z,5.38
2023-04-08T11:45:15.810Z,5.36
2023-04-08T11:46:15.826Z,5.33
2023-04-08T11:47:15.767Z,5.39
2023-04-08T11:48:15.750Z,5.39
2023-04-08T11:49:15.750Z,5.39
2023-04-08T11:50:15.726Z,5.39
2023-04-08T11:51:15.757Z,5.39
2023-04-08T11:52:15.746Z,5.40
2023-04-08T11:53:15.708Z,5.45
2023-04-08T11:54:15.709Z,5.48
2023-04-08T11:55:15.703Z,5.45
2023-04-08T11:56:15.657Z,5.49
2023-04-08T11:57:15.665Z,5.56
2023-04-08T11:58:15.656Z,5.61
2023-04-08T11:59:15.627Z,5.53
2023-04-08T12:00:15.617Z,5.53
2023-04-08T12:01:15.612Z,5.56
2023-04-08T12:02:15.614Z,5.57
2023-04-08T12:03:15.742Z,5.53
2023-04-08T12:04:15.733Z,5.53
2023-04-08T12:05:15.566Z,5.58
2023-04-08T12:06:15.555Z,5.57
2023-04-08T12:07:15.533Z,5.56
2023-04-08T12:08:15.538Z,5.46
2023-04-08T12:09:15.559Z,5.43
2023-04-08T12:10:15.520Z,5.43
2023-04-08T12:11:20.015Z,5.30
2023-04-08T12:12:15.498Z,5.31
2023-04-08T12:13:15.470Z,5.28
2023-04-08T12:14:15.475Z,5.36
2023-04-08T12:15:15.467Z,5.35
2023-04-08T12:16:15.520Z,5.48
2023-04-08T12:17:15.476Z,5.33
2023-04-08T12:18:15.412Z,5.35
2023-04-08T12:19:15.409Z,5.43
2023-04-08T12:20:15.391Z,5.42
2023-04-08T12:21:15.393Z,5.43
2023-04-08T12:22:15.397Z,5.56
2023-04-08T12:23:15.436Z,5.53
2023-04-08T12:24:15.369Z,5.60
2023-04-08T12:25:15.423Z,5.57
2023-04-08T12:26:15.335Z,5.57
2023-04-08T12:27:15.327Z,5.43
2023-04-08T12:28:15.340Z,5.56
2023-04-08T12:29:15.391Z,5.57
2023-04-08T12:30:16.523Z,5.51
2023-04-08T12:31:15.333Z,5.49
2023-04-08T12:32:15.384Z,5.48
2023-04-08T12:33:15.259Z,5.43
2023-04-08T12:34:15.239Z,5.38
2023-04-08T12:35:15.237Z,5.38
2023-04-08T12:36:15.260Z,5.36
2023-04-08T12:37:15.247Z,5.48
2023-04-08T12:38:15.204Z,5.43
2023-04-08T12:39:15.181Z,5.45
2023-04-08T12:40:15.170Z,5.40
2023-04-08T12:41:15.182Z,5.45
2023-04-08T12:42:15.187Z,5.40
2023-04-08T12:43:15.175Z,5.54
2023-04-08T12:44:15.147Z,5.53
2023-04-08T12:45:15.138Z,5.56
2023-04-08T12:46:15.116Z,5.60
2023-04-08T12:47:15.127Z,5.56
2023-04-08T12:48:15.115Z,5.65
2023-04-08T12:49:15.130Z,5.61
2023-04-08T12:50:15.085Z,5.65
2023-04-08T12:51:15.062Z,5.67
2023-04-08T12:52:15.050Z,5.75
2023-04-08T12:53:15.034Z,5.79
2023-04-08T12:54:15.052Z,5.75
2023-04-08T12:55:15.018Z,5.83
2023-04-08T12:56:15.062Z,5.83
2023-04-08T12:57:15.009Z,5.82
2023-04-08T12:58:14.972Z,5.94
2023-04-08T12:59:14.985Z,5.94
2023-04-08T13:00:14.958Z,6.01
2023-04-08T13:01:15.026Z,6.01
2023-04-08T13:02:15.014Z,6.03
2023-04-08T13:03:14.991Z,6.12
2023-04-08T13:04:14.947Z,6.11
2023-04-08T13:05:14.926Z,6.12
2023-04-08T13:06:14.898Z,6.00
2023-04-08T13:07:14.890Z,6.08
2023-04-08T13:08:14.913Z,6.15
2023-04-08T13:09:14.850Z,6.12
2023-04-08T13:10:23.477Z,6.19
2023-04-08T13:11:14.831Z,6.22
2023-04-08T13:12:14.836Z,6.33
2023-04-08T13:13:14.825Z,6.38
2023-04-08T13:14:14.797Z,6.58
2023-04-08T13:15:14.863Z,6.52
2023-04-08T13:16:14.822Z,6.62
2023-04-08T13:17:14.770Z,6.54
2023-04-08T13:18:14.770Z,6.67